Wetterdaten: Woche 25.07.16 - 31.07.16 (KW30)
Datum Zeit Temp. A. Feuchte A. Luftdruck Regen Wind Richtung Taupunkt Windchill Windben
25.07.2016 00:00 16,4 C 93 % 1018,4 hPa 0,0 l/m 0,1 km/h (0 Bft) W 15,2 C 16,4 C 0,9 km/h (0 Bft)
25.07.2016 01:00 15,8 C 94 % 1018,2 hPa 0,0 l/m 0,0 km/h (0 Bft) W 14,9 C 15,8 C 0,0 km/h (0 Bft)
25.07.2016 02:00 15,4 C 95 % 1018,0 hPa 0,0 l/m 0,0 km/h (0 Bft) W 14,6 C 15,4 C 0,3 km/h (0 Bft)
25.07.2016 03:00 14,9 C 95 % 1017,9 hPa 0,0 l/m 0,1 km/h (0 Bft) W 14,2 C 14,9 C 0,7 km/h (0 Bft)
25.07.2016 04:00 14,6 C 96 % 1017,7 hPa 0,0 l/m 0,1 km/h (0 Bft) W 14,0 C 14,6 C 0,7 km/h (0 Bft)
25.07.2016 05:00 14,6 C 96 % 1017,8 hPa 0,0 l/m 0,0 km/h (0 Bft) W 13,9 C 14,6 C 0,3 km/h (0 Bft)
25.07.2016 06:00 14,6 C 97 % 1017,9 hPa 0,0 l/m 0,0 km/h (0 Bft) W 14,1 C 14,6 C 0,1 km/h (0 Bft)
25.07.2016 07:00 16,1 C 97 % 1017,9 hPa 0,0 l/m 0,2 km/h (0 Bft) W 15,7 C 16,1 C 1,3 km/h (1 Bft)
25.07.2016 08:00 18,2 C 92 % 1018,1 hPa 0,0 l/m 0,8 km/h (0 Bft) NO 17,0 C 18,2 C 3,2 km/h (1 Bft)
25.07.2016 09:00 19,9 C 86 % 1018,1 hPa 0,0 l/m 3,1 km/h (1 Bft) O-NO 17,4 C 19,9 C 7,4 km/h (2 Bft)
25.07.2016 10:00 21,8 C 77 % 1017,8 hPa 0,0 l/m 4,0 km/h (1 Bft) O-NO 17,6 C 21,8 C 9,6 km/h (2 Bft)
25.07.2016 11:00 22,6 C 72 % 1017,8 hPa 0,0 l/m 4,1 km/h (1 Bft) O 17,2 C 22,6 C 9,1 km/h (2 Bft)
25.07.2016 12:00 23,7 C 68 % 1017,5 hPa 0,0 l/m 3,7 km/h (1 Bft) O 17,4 C 23,7 C 10,5 km/h (2 Bft)
25.07.2016 13:00 24,7 C 63 % 1017,4 hPa 0,0 l/m 3,9 km/h (1 Bft) O-NO 17,2 C 24,7 C 9,8 km/h (2 Bft)
25.07.2016 14:00 26,9 C 55 % 1017,2 hPa 0,0 l/m 3,9 km/h (1 Bft) O-NO 16,9 C 26,9 C 10,9 km/h (2 Bft)
25.07.2016 15:00 25,9 C 56 % 1017,2 hPa 0,0 l/m 4,1 km/h (1 Bft) NO 16,4 C 25,8 C 10,2 km/h (2 Bft)
25.07.2016 16:00 26,4 C 52 % 1017,0 hPa 0,0 l/m 5,3 km/h (1 Bft) O 15,7 C 26,4 C 12,5 km/h (2 Bft)
25.07.2016 17:00 26,8 C 49 % 1017,1 hPa 0,0 l/m 4,6 km/h (1 Bft) NO 15,1 C 26,8 C 12,5 km/h (2 Bft)
25.07.2016 18:00 25,9 C 51 % 1017,1 hPa 0,0 l/m 4,1 km/h (1 Bft) O 15,0 C 25,9 C 10,3 km/h (2 Bft)
25.07.2016 19:00 24,4 C 55 % 1017,4 hPa 0,0 l/m 2,9 km/h (1 Bft) O-NO 14,9 C 24,4 C 8,2 km/h (2 Bft)
25.07.2016 20:00 22,8 C 59 % 1017,8 hPa 0,0 l/m 1,6 km/h (1 Bft) O 14,4 C 22,8 C 4,7 km/h (1 Bft)
25.07.2016 21:00 20,4 C 69 % 1018,2 hPa 0,0 l/m 0,2 km/h (0 Bft) O 14,4 C 20,4 C 1,6 km/h (1 Bft)
25.07.2016 22:00 17,9 C 78 % 1018,5 hPa 0,0 l/m 0,1 km/h (0 Bft) O 14,1 C 17,9 C 0,5 km/h (0 Bft)
25.07.2016 23:00 16,4 C 84 % 1018,8 hPa 0,0 l/m 0,1 km/h (0 Bft) O 13,7 C 16,4 C 0,4 km/h (0 Bft)
26.07.2016 00:00 15,3 C 88 % 1018,7 hPa 0,0 l/m 0,1 km/h (0 Bft) O 13,3 C 15,3 C 0,7 km/h (0 Bft)
26.07.2016 01:00 14,5 C 90 % 1018,6 hPa 0,0 l/m 0,0 km/h (0 Bft) O 12,8 C 14,5 C 0,4 km/h (0 Bft)
26.07.2016 02:00 13,7 C 92 % 1018,4 hPa 0,0 l/m 0,0 km/h (0 Bft) O 12,4 C 13,7 C 0,1 km/h (0 Bft)
26.07.2016 03:00 13,4 C 93 % 1018,5 hPa 0,0 l/m 0,0 km/h (0 Bft) O 12,3 C 13,4 C 0,7 km/h (0 Bft)
26.07.2016 04:00 12,8 C 94 % 1018,5 hPa 0,0 l/m 0,0 km/h (0 Bft) O 11,8 C 12,8 C 0,3 km/h (0 Bft)
26.07.2016 05:00 12,2 C 95 % 1018,5 hPa 0,0 l/m 0,0 km/h (0 Bft) O 11,4 C 12,2 C 0,0 km/h (0 Bft)
26.07.2016 06:00 12,0 C 96 % 1018,5 hPa 0,0 l/m 0,0 km/h (0 Bft) O 11,3 C 12,0 C 0,1 km/h (0 Bft)
26.07.2016 07:00 13,6 C 95 % 1018,7 hPa 0,0 l/m 0,2 km/h (0 Bft) O 12,9 C 13,6 C 1,5 km/h (1 Bft)
26.07.2016 08:00 18,7 C 81 % 1018,9 hPa 0,0 l/m 0,8 km/h (0 Bft) O 15,4 C 18,7 C 2,3 km/h (1 Bft)
26.07.2016 09:00 22,4 C 69 % 1018,6 hPa 0,0 l/m 2,0 km/h (1 Bft) NW 16,3 C 22,4 C 4,8 km/h (1 Bft)
26.07.2016 10:00 24,1 C 62 % 1018,3 hPa 0,0 l/m 2,4 km/h (1 Bft) N-NW 16,2 C 24,1 C 5,7 km/h (2 Bft)
26.07.2016 11:00 25,7 C 52 % 1018,1 hPa 0,0 l/m 3,1 km/h (1 Bft) NO 15,0 C 25,7 C 6,5 km/h (2 Bft)
26.07.2016 12:00 26,3 C 52 % 1017,8 hPa 0,0 l/m 2,6 km/h (1 Bft) S-SW 15,6 C 26,3 C 6,4 km/h (2 Bft)
26.07.2016 13:00 26,6 C 50 % 1017,4 hPa 0,0 l/m 3,2 km/h (1 Bft) O-NO 15,4 C 26,6 C 8,2 km/h (2 Bft)
26.07.2016 14:00 27,2 C 50 % 1017,0 hPa 0,0 l/m 3,1 km/h (1 Bft) SW 15,9 C 27,2 C 7,5 km/h (2 Bft)
26.07.2016 15:00 28,3 C 47 % 1016,8 hPa 0,0 l/m 3,2 km/h (1 Bft) NW 15,8 C 28,3 C 8,2 km/h (2 Bft)
26.07.2016 16:00 27,8 C 48 % 1016,6 hPa 0,0 l/m 3,3 km/h (1 Bft) N-NO 15,9 C 27,8 C 7,6 km/h (2 Bft)
26.07.2016 17:00 25,2 C 56 % 1016,4 hPa 0,0 l/m 1,8 km/h (1 Bft) NO 15,7 C 25,2 C 4,9 km/h (1 Bft)
26.07.2016 18:00 26,6 C 50 % 1016,4 hPa 0,0 l/m 1,7 km/h (1 Bft) S 15,4 C 26,6 C 5,2 km/h (1 Bft)
26.07.2016 19:00 25,6 C 54 % 1016,6 hPa 0,0 l/m 2,8 km/h (1 Bft) O-NO 15,4 C 25,6 C 7,9 km/h (2 Bft)
26.07.2016 20:00 22,3 C 65 % 1017,0 hPa 0,0 l/m 2,8 km/h (1 Bft) N 15,4 C 22,3 C 7,1 km/h (2 Bft)
26.07.2016 21:00 20,3 C 75 % 1017,9 hPa 0,0 l/m 1,8 km/h (1 Bft) W 15,8 C 20,3 C 5,2 km/h (1 Bft)
26.07.2016 22:00 18,4 C 81 % 1018,2 hPa 0,0 l/m 0,7 km/h (0 Bft) W 15,1 C 18,4 C 2,5 km/h (1 Bft)
26.07.2016 23:00 16,8 C 86 % 1017,9 hPa 0,0 l/m 0,2 km/h (0 Bft) W 14,4 C 16,8 C 1,3 km/h (1 Bft)
27.07.2016 00:00 15,5 C 90 % 1017,8 hPa 0,0 l/m 0,1 km/h (0 Bft) W 13,8 C 15,5 C 1,1 km/h (0 Bft)
27.07.2016 01:00 14,7 C 92 % 1017,5 hPa 0,0 l/m 0,0 km/h (0 Bft) W 13,4 C 14,7 C 0,5 km/h (0 Bft)
27.07.2016 02:00 14,4 C 93 % 1017,0 hPa 0,0 l/m 0,1 km/h (0 Bft) W 13,2 C 14,4 C 0,7 km/h (0 Bft)
27.07.2016 03:00 13,9 C 94 % 1016,8 hPa 0,0 l/m 0,0 km/h (0 Bft) W 13,0 C 13,9 C 0,4 km/h (0 Bft)
27.07.2016 04:00 13,6 C 95 % 1016,5 hPa 0,0 l/m 0,1 km/h (0 Bft) W 12,8 C 13,6 C 0,8 km/h (0 Bft)
27.07.2016 05:00 13,5 C 95 % 1016,4 hPa 0,0 l/m 0,3 km/h (0 Bft) W 12,8 C 13,5 C 0,9 km/h (0 Bft)
27.07.2016 06:00 13,4 C 96 % 1016,6 hPa 0,0 l/m 0,2 km/h (0 Bft) W 12,8 C 13,4 C 1,1 km/h (0 Bft)
27.07.2016 07:00 15,2 C 95 % 1016,8 hPa 0,0 l/m 0,3 km/h (0 Bft) W 14,4 C 15,2 C 1,5 km/h (1 Bft)
27.07.2016 08:00 18,3 C 82 % 1016,8 hPa 0,0 l/m 1,4 km/h (1 Bft) O 15,1 C 18,3 C 3,6 km/h (1 Bft)
27.07.2016 09:00 18,8 C 77 % 1017,0 hPa 0,0 l/m 2,1 km/h (1 Bft) O 14,6 C 18,8 C 4,9 km/h (1 Bft)
27.07.2016 10:00 20,1 C 71 % 1017,1 hPa 0,0 l/m 2,4 km/h (1 Bft) O-NO 14,7 C 20,1 C 6,4 km/h (2 Bft)
27.07.2016 11:00 21,6 C 66 % 1016,9 hPa 0,0 l/m 3,6 km/h (1 Bft) O-NO 15,0 C 21,6 C 8,4 km/h (2 Bft)
27.07.2016 12:00 23,0 C 60 % 1016,5 hPa 0,0 l/m 4,6 km/h (1 Bft) NO 14,9 C 23,0 C 8,2 km/h (2 Bft)
27.07.2016 13:00 24,0 C 53 % 1016,1 hPa 0,0 l/m 5,3 km/h (1 Bft) NO 13,8 C 24,0 C 10,5 km/h (2 Bft)
27.07.2016 14:00 25,0 C 46 % 1016,0 hPa 0,0 l/m 4,6 km/h (1 Bft) O 12,5 C 25,0 C 9,8 km/h (2 Bft)
27.07.2016 15:00 25,7 C 43 % 1015,6 hPa 0,0 l/m 5,1 km/h (1 Bft) O-NO 12,2 C 25,6 C 13,6 km/h (3 Bft)
27.07.2016 16:00 25,6 C 46 % 1015,1 hPa 0,0 l/m 4,9 km/h (1 Bft) NO 13,1 C 25,6 C 12,8 km/h (3 Bft)
27.07.2016 17:00 24,7 C 50 % 1015,1 hPa 0,0 l/m 4,4 km/h (1 Bft) O-NO 13,4 C 24,7 C 11,7 km/h (2 Bft)
27.07.2016 18:00 24,1 C 52 % 1015,3 hPa 0,0 l/m 4,2 km/h (1 Bft) O 13,7 C 24,1 C 9,5 km/h (2 Bft)
27.07.2016 19:00 22,6 C 57 % 1015,5 hPa 0,0 l/m 2,4 km/h (1 Bft) NO 13,6 C 22,6 C 6,3 km/h (2 Bft)
27.07.2016 20:00 20,7 C 63 % 1016,1 hPa 0,0 l/m 1,4 km/h (1 Bft) O-NO 13,4 C 20,7 C 4,1 km/h (1 Bft)
27.07.2016 21:00 18,7 C 72 % 1016,7 hPa 0,0 l/m 0,3 km/h (0 Bft) O-NO 13,6 C 18,7 C 2,1 km/h (1 Bft)
27.07.2016 22:00 16,9 C 80 % 1017,0 hPa 0,0 l/m 0,0 km/h (0 Bft) O-NO 13,4 C 16,9 C 0,4 km/h (0 Bft)
27.07.2016 23:00 15,5 C 85 % 1017,3 hPa 0,0 l/m 0,5 km/h (0 Bft) O-NO 12,9 C 15,5 C 1,5 km/h (1 Bft)
28.07.2016 00:00 15,2 C 86 % 1017,4 hPa 0,0 l/m 0,5 km/h (0 Bft) O-NO 12,9 C 15,2 C 1,4 km/h (1 Bft)
28.07.2016 01:00 14,4 C 88 % 1017,3 hPa 0,0 l/m 0,0 km/h (0 Bft) O-NO 12,5 C 14,4 C 0,7 km/h (0 Bft)
28.07.2016 02:00 13,2 C 91 % 1017,3 hPa 0,0 l/m 0,2 km/h (0 Bft) O-NO 11,8 C 13,2 C 1,5 km/h (1 Bft)
28.07.2016 03:00 12,7 C 93 % 1017,3 hPa 0,0 l/m 0,0 km/h (0 Bft) O-NO 11,6 C 12,7 C 0,3 km/h (0 Bft)
28.07.2016 04:00 12,9 C 94 % 1016,9 hPa 0,0 l/m 0,0 km/h (0 Bft) O-NO 11,9 C 12,9 C 0,1 km/h (0 Bft)
28.07.2016 05:00 13,0 C 94 % 1016,6 hPa 0,0 l/m 0,0 km/h (0 Bft) O-NO 12,0 C 13,0 C 0,4 km/h (0 Bft)
28.07.2016 06:00 13,0 C 94 % 1016,4 hPa 0,0 l/m 0,0 km/h (0 Bft) O-NO 12,0 C 13,0 C 0,1 km/h (0 Bft)
28.07.2016 07:00 14,3 C 92 % 1016,6 hPa 0,0 l/m 0,2 km/h (0 Bft) O-NO 13,0 C 14,3 C 1,2 km/h (1 Bft)
28.07.2016 08:00 17,7 C 81 % 1016,4 hPa 0,0 l/m 0,5 km/h (0 Bft) O-NO 14,4 C 17,7 C 2,3 km/h (1 Bft)
28.07.2016 09:00 20,3 C 70 % 1016,5 hPa 0,0 l/m 1,9 km/h (1 Bft) O-NO 14,7 C 20,3 C 5,6 km/h (2 Bft)
28.07.2016 10:00 21,7 C 63 % 1016,4 hPa 0,0 l/m 4,1 km/h (1 Bft) NO 14,3 C 21,7 C 10,6 km/h (2 Bft)
28.07.2016 11:00 23,0 C 56 % 1016,3 hPa 0,0 l/m 4,3 km/h (1 Bft) O-NO 13,7 C 23,0 C 10,2 km/h (2 Bft)
28.07.2016 12:00 23,1 C 56 % 1016,2 hPa 0,0 l/m 4,6 km/h (1 Bft) NO 13,8 C 23,1 C 10,2 km/h (2 Bft)
28.07.2016 13:00 23,4 C 57 % 1015,9 hPa 0,0 l/m 4,0 km/h (1 Bft) O-NO 14,3 C 23,4 C 11,3 km/h (2 Bft)
28.07.2016 14:00 23,7 C 56 % 1015,6 hPa 0,0 l/m 4,9 km/h (1 Bft) O-NO 14,4 C 23,7 C 12,8 km/h (3 Bft)
28.07.2016 15:00 23,4 C 59 % 1015,2 hPa 0,0 l/m 4,3 km/h (1 Bft) O-NO 14,8 C 23,4 C 10,9 km/h (2 Bft)
28.07.2016 16:00 23,7 C 54 % 1015,0 hPa 0,0 l/m 4,5 km/h (1 Bft) O-NO 13,9 C 23,7 C 12,9 km/h (3 Bft)
28.07.2016 17:00 24,4 C 47 % 1014,6 hPa 0,0 l/m 4,8 km/h (1 Bft) O 12,5 C 24,4 C 12,8 km/h (3 Bft)
28.07.2016 18:00 24,0 C 50 % 1014,4 hPa 0,0 l/m 4,0 km/h (1 Bft) NO 13,0 C 24,0 C 9,7 km/h (2 Bft)
28.07.2016 19:00 22,1 C 58 % 1014,4 hPa 0,0 l/m 3,7 km/h (1 Bft) O-NO 13,3 C 22,1 C 9,3 km/h (2 Bft)
28.07.2016 20:00 21,0 C 64 % 1014,7 hPa 0,0 l/m 4,3 km/h (1 Bft) O-NO 14,0 C 21,0 C 11,1 km/h (2 Bft)
28.07.2016 21:00 19,4 C 74 % 1015,1 hPa 0,0 l/m 2,5 km/h (1 Bft) O 14,7 C 19,4 C 7,2 km/h (2 Bft)
28.07.2016 22:00 18,5 C 77 % 1015,3 hPa 0,0 l/m 2,6 km/h (1 Bft) O-NO 14,4 C 18,5 C 7,0 km/h (2 Bft)
28.07.2016 23:00 18,3 C 76 % 1015,4 hPa 0,0 l/m 1,4 km/h (1 Bft) O 14,0 C 18,3 C 4,1 km/h (1 Bft)
29.07.2016 00:00 17,8 C 81 % 1015,5 hPa 0,5 l/m 1,8 km/h (1 Bft) O 14,4 C 17,8 C 5,1 km/h (1 Bft)
29.07.2016 01:00 16,2 C 90 % 1015,7 hPa 0,0 l/m 2,0 km/h (1 Bft) O 14,6 C 16,2 C 6,1 km/h (2 Bft)
29.07.2016 02:00 15,6 C 92 % 1015,5 hPa 0,0 l/m 2,2 km/h (1 Bft) NO 14,3 C 15,6 C 5,2 km/h (1 Bft)
29.07.2016 03:00 15,4 C 92 % 1015,3 hPa 0,0 l/m 1,9 km/h (1 Bft) NO 14,2 C 15,4 C 4,5 km/h (1 Bft)
29.07.2016 04:00 15,2 C 93 % 1015,0 hPa 0,0 l/m 1,2 km/h (1 Bft) W-NW 14,1 C 15,2 C 3,6 km/h (1 Bft)
29.07.2016 05:00 14,9 C 93 % 1014,9 hPa 0,0 l/m 1,8 km/h (1 Bft) O 13,7 C 14,9 C 4,3 km/h (1 Bft)
29.07.2016 06:00 14,9 C 93 % 1015,0 hPa 0,0 l/m 1,3 km/h (1 Bft) N-NO 13,8 C 14,9 C 3,7 km/h (1 Bft)
29.07.2016 07:00 16,1 C 90 % 1015,1 hPa 0,0 l/m 2,6 km/h (1 Bft) N-NO 14,4 C 16,1 C 6,8 km/h (2 Bft)
29.07.2016 08:00 17,9 C 84 % 1015,2 hPa 0,0 l/m 3,9 km/h (1 Bft) O-NO 15,2 C 17,9 C 10,2 km/h (2 Bft)
29.07.2016 09:00 19,4 C 77 % 1015,0 hPa 0,0 l/m 4,4 km/h (1 Bft) NO 15,2 C 19,4 C 11,3 km/h (2 Bft)
29.07.2016 10:00 20,9 C 68 % 1014,7 hPa 0,0 l/m 4,1 km/h (1 Bft) O-NO 14,8 C 20,9 C 10,5 km/h (2 Bft)
29.07.2016 11:00 21,6 C 65 % 1014,5 hPa 0,0 l/m 4,5 km/h (1 Bft) O-NO 14,6 C 21,6 C 11,1 km/h (2 Bft)
29.07.2016 12:00 21,6 C 64 % 1014,5 hPa 0,0 l/m 5,6 km/h (2 Bft) O-NO 14,4 C 21,5 C 13,1 km/h (3 Bft)
29.07.2016 13:00 23,0 C 59 % 1014,1 hPa 0,0 l/m 4,9 km/h (1 Bft) O-NO 14,4 C 22,9 C 12,1 km/h (2 Bft)
29.07.2016 14:00 24,0 C 56 % 1013,8 hPa 0,0 l/m 5,3 km/h (1 Bft) NO 14,7 C 23,9 C 13,8 km/h (3 Bft)
29.07.2016 15:00 23,9 C 56 % 1013,8 hPa 0,0 l/m 6,3 km/h (2 Bft) O-NO 14,5 C 23,7 C 15,4 km/h (3 Bft)
29.07.2016 16:00 24,1 C 55 % 1013,4 hPa 0,0 l/m 6,1 km/h (2 Bft) O 14,5 C 24,1 C 16,2 km/h (3 Bft)
29.07.2016 17:00 24,3 C 53 % 1013,1 hPa 0,0 l/m 6,1 km/h (2 Bft) O 14,2 C 24,2 C 14,8 km/h (3 Bft)
29.07.2016 18:00 24,3 C 54 % 1012,9 hPa 0,0 l/m 4,8 km/h (1 Bft) O 14,5 C 24,3 C 10,9 km/h (2 Bft)
29.07.2016 19:00 22,7 C 58 % 1012,9 hPa 0,0 l/m 4,0 km/h (1 Bft) O-NO 14,1 C 22,7 C 11,4 km/h (2 Bft)
29.07.2016 20:00 21,4 C 64 % 1012,9 hPa 0,0 l/m 1,1 km/h (1 Bft) O-NO 14,3 C 21,4 C 3,9 km/h (1 Bft)
29.07.2016 21:00 19,3 C 73 % 1013,4 hPa 0,0 l/m 0,2 km/h (0 Bft) O-NO 14,4 C 19,3 C 1,2 km/h (1 Bft)
29.07.2016 22:00 17,4 C 81 % 1013,7 hPa 0,0 l/m 0,1 km/h (0 Bft) O-NO 14,0 C 17,4 C 1,2 km/h (1 Bft)
29.07.2016 23:00 15,4 C 87 % 1014,0 hPa 0,0 l/m 0,1 km/h (0 Bft) O-NO 13,3 C 15,4 C 0,6 km/h (0 Bft)
30.07.2016 00:00 14,5 C 90 % 1014,2 hPa 0,0 l/m 0,0 km/h (0 Bft) O-NO 12,9 C 14,5 C 0,1 km/h (0 Bft)
30.07.2016 01:00 13,7 C 92 % 1014,2 hPa 0,0 l/m 0,1 km/h (0 Bft) O-NO 12,5 C 13,7 C 0,5 km/h (0 Bft)
30.07.2016 02:00 13,0 C 94 % 1014,2 hPa 0,0 l/m 0,1 km/h (0 Bft) O-NO 12,0 C 13,0 C 0,7 km/h (0 Bft)
30.07.2016 03:00 12,4 C 94 % 1014,1 hPa 0,0 l/m 0,0 km/h (0 Bft) O 11,5 C 12,4 C 0,0 km/h (0 Bft)
30.07.2016 04:00 11,9 C 95 % 1013,9 hPa 0,0 l/m 0,0 km/h (0 Bft) O 11,2 C 11,9 C 0,1 km/h (0 Bft)
30.07.2016 05:00 11,6 C 96 % 1014,0 hPa 0,0 l/m 0,0 km/h (0 Bft) O 10,9 C 11,6 C 0,3 km/h (0 Bft)
30.07.2016 06:00 11,7 C 96 % 1014,0 hPa 0,0 l/m 0,0 km/h (0 Bft) O 11,2 C 11,7 C 0,6 km/h (0 Bft)
30.07.2016 07:00 13,3 C 96 % 1013,9 hPa 0,0 l/m 0,1 km/h (0 Bft) O 12,6 C 13,3 C 0,9 km/h (0 Bft)
30.07.2016 08:00 18,1 C 83 % 1013,8 hPa 0,0 l/m 0,6 km/h (0 Bft) O 15,1 C 18,1 C 2,5 km/h (1 Bft)
30.07.2016 09:00 22,3 C 69 % 1013,4 hPa 0,0 l/m 2,6 km/h (1 Bft) NO 16,3 C 22,3 C 6,5 km/h (2 Bft)
30.07.2016 10:00 23,7 C 62 % 1013,1 hPa 0,0 l/m 4,9 km/h (1 Bft) O-NO 15,9 C 23,7 C 11,4 km/h (2 Bft)
30.07.2016 11:00 25,2 C 56 % 1012,8 hPa 0,0 l/m 5,5 km/h (2 Bft) O-NO 15,8 C 25,1 C 13,1 km/h (3 Bft)
30.07.2016 12:00 25,9 C 55 % 1012,7 hPa 0,0 l/m 6,8 km/h (2 Bft) O-NO 16,1 C 25,7 C 14,4 km/h (3 Bft)
30.07.2016 13:00 26,5 C 51 % 1012,5 hPa 0,0 l/m 7,4 km/h (2 Bft) O-NO 15,4 C 26,3 C 18,1 km/h (3 Bft)
30.07.2016 14:00 27,3 C 46 % 1012,4 hPa 0,0 l/m 6,8 km/h (2 Bft) O-NO 14,5 C 27,2 C 16,4 km/h (3 Bft)
30.07.2016 15:00 28,0 C 44 % 1012,0 hPa 0,0 l/m 5,3 km/h (1 Bft) NO 14,5 C 27,9 C 14,2 km/h (3 Bft)
30.07.2016 16:00 28,3 C 42 % 1011,7 hPa 0,0 l/m 6,7 km/h (2 Bft) O-NO 14,1 C 28,2 C 17,3 km/h (3 Bft)
30.07.2016 17:00 28,2 C 42 % 1011,2 hPa 0,0 l/m 5,8 km/h (2 Bft) O-NO 14,1 C 28,1 C 14,3 km/h (3 Bft)
30.07.2016 18:00 27,5 C 45 % 1011,0 hPa 0,0 l/m 4,1 km/h (1 Bft) O 14,6 C 27,5 C 9,5 km/h (2 Bft)
30.07.2016 19:00 25,8 C 53 % 1010,8 hPa 0,0 l/m 3,2 km/h (1 Bft) O-NO 15,5 C 25,8 C 9,7 km/h (2 Bft)
30.07.2016 20:00 24,8 C 58 % 1011,1 hPa 0,0 l/m 1,7 km/h (1 Bft) O-NO 15,9 C 24,8 C 4,4 km/h (1 Bft)
30.07.2016 21:00 22,0 C 68 % 1011,3 hPa 0,0 l/m 0,1 km/h (0 Bft) O-NO 15,9 C 22,0 C 0,9 km/h (0 Bft)
30.07.2016 22:00 19,5 C 78 % 1011,4 hPa 0,0 l/m 0,2 km/h (0 Bft) O-NO 15,6 C 19,5 C 1,2 km/h (1 Bft)
30.07.2016 23:00 17,6 C 84 % 1010,9 hPa 0,0 l/m 0,0 km/h (0 Bft) O-NO 14,9 C 17,6 C 0,2 km/h (0 Bft)
31.07.2016 00:00 16,7 C 87 % 1010,7 hPa 0,0 l/m 0,0 km/h (0 Bft) O-NO 14,5 C 16,7 C 0,0 km/h (0 Bft)
31.07.2016 01:00 15,4 C 90 % 1010,5 hPa 0,0 l/m 0,0 km/h (0 Bft) O-NO 13,8 C 15,4 C 0,0 km/h (0 Bft)
31.07.2016 02:00 15,1 C 91 % 1010,8 hPa 0,0 l/m 0,0 km/h (0 Bft) O-NO 13,7 C 15,1 C 0,0 km/h (0 Bft)
31.07.2016 03:00 15,1 C 93 % 1010,9 hPa 0,0 l/m 0,0 km/h (0 Bft) O-NO 14,0 C 15,1 C 0,0 km/h (0 Bft)
31.07.2016 04:00 15,7 C 95 % 1010,6 hPa 0,3 l/m 0,0 km/h (0 Bft) O-NO 14,9 C 15,7 C 0,0 km/h (0 Bft)
31.07.2016 05:00 16,3 C 96 % 1010,4 hPa 0,8 l/m 0,5 km/h (0 Bft) SO 15,7 C 16,3 C 1,3 km/h (1 Bft)
31.07.2016 06:00 16,7 C 96 % 1010,3 hPa 1,3 l/m 1,3 km/h (1 Bft) O 16,0 C 16,7 C 3,4 km/h (1 Bft)
31.07.2016 07:00 16,8 C 96 % 1010,4 hPa 0,0 l/m 0,9 km/h (0 Bft) O 16,0 C 16,8 C 3,1 km/h (1 Bft)
31.07.2016 08:00 17,2 C 95 % 1010,7 hPa 0,0 l/m 1,3 km/h (1 Bft) O 16,3 C 17,2 C 3,6 km/h (1 Bft)
31.07.2016 09:00 17,5 C 94 % 1011,1 hPa 0,5 l/m 0,5 km/h (0 Bft) S-SO 16,5 C 17,5 C 2,0 km/h (1 Bft)
31.07.2016 10:00 17,4 C 94 % 1011,3 hPa 2,3 l/m 0,9 km/h (0 Bft) O-NO 16,5 C 17,4 C 2,9 km/h (1 Bft)
31.07.2016 11:00 17,8 C 93 % 1011,4 hPa 0,0 l/m 2,3 km/h (1 Bft) O-NO 16,7 C 17,8 C 5,3 km/h (1 Bft)
31.07.2016 12:00 18,0 C 91 % 1012,0 hPa 0,0 l/m 3,2 km/h (1 Bft) O-NO 16,5 C 18,0 C 6,2 km/h (2 Bft)
31.07.2016 13:00 18,7 C 83 % 1012,4 hPa 0,0 l/m 3,4 km/h (1 Bft) O-NO 15,7 C 18,7 C 8,2 km/h (2 Bft)
31.07.2016 14:00 19,6 C 72 % 1012,6 hPa 0,0 l/m 4,2 km/h (1 Bft) O-NO 14,4 C 19,6 C 11,6 km/h (2 Bft)
31.07.2016 15:00 20,4 C 62 % 1012,7 hPa 0,0 l/m 5,2 km/h (1 Bft) O-NO 12,9 C 20,4 C 13,8 km/h (3 Bft)
31.07.2016 16:00 20,1 C 62 % 1013,2 hPa 0,0 l/m 4,3 km/h (1 Bft) O-NO 12,6 C 20,1 C 11,7 km/h (2 Bft)
31.07.2016 17:00 20,1 C 66 % 1013,6 hPa 0,0 l/m 4,0 km/h (1 Bft) O-NO 13,5 C 20,1 C 11,3 km/h (2 Bft)
31.07.2016 18:00 19,0 C 69 % 1014,0 hPa 0,0 l/m 3,4 km/h (1 Bft) O-NO 13,3 C 19,0 C 8,4 km/h (2 Bft)
31.07.2016 19:00 17,7 C 74 % 1014,5 hPa 0,0 l/m 3,0 km/h (1 Bft) O-NO 13,0 C 17,7 C 7,8 km/h (2 Bft)
31.07.2016 20:00 16,6 C 77 % 1015,1 hPa 0,0 l/m 0,8 km/h (0 Bft) O-NO 12,5 C 16,6 C 3,1 km/h (1 Bft)
31.07.2016 21:00 14,9 C 84 % 1015,9 hPa 0,0 l/m 0,2 km/h (0 Bft) NW 12,3 C 14,9 C 1,7 km/h (1 Bft)
31.07.2016 22:00 13,1 C 90 % 1016,5 hPa 0,0 l/m 0,2 km/h (0 Bft) NW 11,5 C 13,1 C 1,1 km/h (0 Bft)
31.07.2016 23:00 11,8 C 92 % 1017,1 hPa 0,0 l/m 0,1 km/h (0 Bft) O-NO 10,6 C 11,8 C 0,4 km/h (0 Bft)
Min-Datum _ 31.07.16 30.07.16 31.07.16 - 31.07.16 - 31.07.16 31.07.16 31.07.16
_ Min-Zeit 23:58 17:00 06:00 - 23:00 - 23:58 23:58 23:00
Minimum _ 11,4 C 41 % 1010,1 hPa - 0,0 km/h (0 Bft) - 10,3 C 11,4 C 0,0 km/h (0 Bft)
Max-Datum _ 30.07.16 30.07.16 26.07.16 31.07.16 27.07.16 - 25.07.16 30.07.16 30.07.16
_ Max-Zeit 16:00 07:25 08:25 10:10 12:28 - 12:35 15:55 16:30
Maximum _ 28,7 C 98 % 1019,0 hPa 2,3 l/m 9,7 km/h
NO (2 Bft)
- 18,2 C 28,7 C 25,7 km/h
O (4 Bft)
Durchschnitt _ 19,4 C 75 % 1015,4 hPa #5,6 l/m 2,2 km/h (1 Bft) O-NO 14,2 C 19,4 C 5,7 km/h (2 Bft)